Time;durP1;ratioP1;P1;durP2;ratioP2;P2;SDS_P1;SDS_P2;PMS_P1;PMS_P2;Temp;Humidity;BMP_temperature;BMP_pressure;BME280_temperature;BME280_humidity;BME280_pressure;Samples;Min_cycle;Max_cycle;Signal;HPM_P1;HPM_P2
2023/05/18 00:02:20;;;;;;;14.70;3.80;;;;;;;8.81;69.47;100814.24;103563;1252;97641;-65
2023/05/18 00:04:48;;;;;;;9.60;2.80;;;;;;;8.80;69.52;100809.73;104107;1255;137771;-66
2023/05/18 00:07:18;;;;;;;7.70;2.80;;;;;;;8.81;69.64;100811.82;103468;1252;1002332;-66
2023/05/18 00:09:46;;;;;;;13.40;2.90;;;;;;;8.80;69.40;100812.34;103506;1251;110610;-65
2023/05/18 00:12:23;;;;;;;14.20;3.00;;;;;;;8.79;69.39;100811.13;103895;1253;107537;-65
2023/05/18 00:15:01;;;;;;;9.30;2.50;;;;;;;8.77;69.14;100814.61;103973;1253;95549;-66
2023/05/18 00:17:31;;;;;;;12.30;3.20;;;;;;;8.76;69.46;100812.21;103683;1253;137844;-65
2023/05/18 00:20:04;;;;;;;12.00;2.90;;;;;;;8.75;69.38;100811.89;103535;1253;96429;-65
2023/05/18 00:22:41;;;;;;;15.10;2.80;;;;;;;8.72;69.17;100813.49;103802;1251;137917;-65
2023/05/18 00:25:09;;;;;;;9.00;2.80;;;;;;;8.70;69.06;100819.42;103899;1255;106570;-66
2023/05/18 00:27:36;;;;;;;13.20;2.50;;;;;;;8.68;68.95;100822.06;104049;1255;94890;-66
2023/05/18 00:30:05;;;;;;;12.80;2.80;;;;;;;8.65;69.05;100818.48;103592;1253;137807;-66
2023/05/18 00:32:35;;;;;;;8.50;2.60;;;;;;;8.64;69.30;100817.96;103989;1253;96434;-65
2023/05/18 00:35:23;;;;;;;14.50;2.90;;;;;;;8.64;69.67;100818.31;103502;1253;137662;-65
2023/05/18 00:37:56;;;;;;;8.90;2.60;;;;;;;8.64;69.80;100816.06;103731;1252;108762;-66
2023/05/18 00:40:24;;;;;;;11.80;3.50;;;;;;;8.65;69.95;100820.90;104040;1252;138205;-66
2023/05/18 00:42:51;;;;;;;10.90;2.60;;;;;;;8.65;69.89;100820.90;103951;1252;107379;-66
2023/05/18 00:45:20;;;;;;;10.30;2.70;;;;;;;8.64;69.96;100827.84;103481;1258;96307;-65
2023/05/18 00:47:48;;;;;;;15.10;2.30;;;;;;;8.63;69.86;100828.20;103684;1253;137831;-65
2023/05/18 00:50:18;;;;;;;10.90;2.80;;;;;;;8.62;69.93;100830.30;104853;1253;108006;-66
2023/05/18 00:52:45;;;;;;;9.20;2.30;;;;;;;8.61;70.20;100834.81;104753;1253;138533;-66
2023/05/18 00:55:14;;;;;;;12.50;2.50;;;;;;;8.59;69.96;100842.10;104054;1255;107188;-66
2023/05/18 00:57:43;;;;;;;9.10;2.40;;;;;;;8.58;69.77;100845.77;104028;1255;95063;-66
2023/05/18 01:00:16;;;;;;;10.90;2.30;;;;;;;8.57;69.89;100843.71;104329;1251;110062;-66
2023/05/18 01:02:44;;;;;;;6.30;2.30;;;;;;;8.56;69.97;100842.52;104123;1253;107691;-67
2023/05/18 01:05:16;;;;;;;10.50;2.50;;;;;;;8.56;70.00;100842.34;103791;1252;137905;-66
2023/05/18 01:07:44;;;;;;;11.10;2.70;;;;;;;8.56;70.29;100844.25;104010;1253;107922;-66
2023/05/18 01:10:16;;;;;;;11.50;2.80;;;;;;;8.55;70.18;100848.08;103451;1252;138165;-66
2023/05/18 01:12:49;;;;;;;10.60;2.50;;;;;;;8.55;70.28;100850.85;104157;1255;110125;-66
2023/05/18 01:15:22;;;;;;;14.00;3.30;;;;;;;8.55;70.24;100852.23;103549;1253;108833;-66
2023/05/18 01:18:09;;;;;;;14.00;3.00;;;;;;;8.54;70.31;100847.74;103793;1251;137979;-66
2023/05/18 01:20:46;;;;;;;14.90;3.10;;;;;;;8.52;70.29;100844.48;104868;1251;107474;-66
2023/05/18 01:23:41;;;;;;;12.70;3.20;;;;;;;8.50;70.53;100844.33;104745;1251;137914;-66
2023/05/18 01:26:15;;;;;;;18.20;2.70;;;;;;;8.50;70.66;100846.59;103997;1251;109824;-66
2023/05/18 01:28:46;;;;;;;11.80;2.80;;;;;;;8.48;70.40;100854.59;103845;1252;138286;-66
2023/05/18 01:31:16;;;;;;;8.60;2.40;;;;;;;8.47;70.45;100852.88;103607;1255;96571;-66
2023/05/18 01:33:47;;;;;;;12.00;2.40;;;;;;;8.43;70.41;100853.44;103474;1255;107681;-65
2023/05/18 01:36:15;;;;;;;13.20;3.00;;;;;;;8.41;70.39;100854.84;103553;1253;96441;-65
2023/05/18 01:38:44;;;;;;;8.70;2.50;;;;;;;8.38;70.38;100851.25;103667;1251;111042;-65
2023/05/18 01:41:20;;;;;;;11.80;2.90;;;;;;;8.35;70.51;100853.73;103530;1253;138976;-66
2023/05/18 01:43:55;;;;;;;10.40;2.50;;;;;;;8.31;70.51;100850.63;103778;1256;96899;-65
2023/05/18 01:46:32;;;;;;;7.80;2.50;;;;;;;8.27;70.62;100851.38;103785;1251;138013;-66
2023/05/18 01:49:06;;;;;;;10.00;3.10;;;;;;;8.21;70.82;100851.09;103522;1256;96347;-66
2023/05/18 01:51:41;;;;;;;12.80;2.80;;;;;;;8.18;70.98;100854.95;103425;1253;110243;-66
2023/05/18 01:54:11;;;;;;;11.70;2.70;;;;;;;8.15;71.12;100852.55;103472;1252;137857;-66
2023/05/18 01:56:40;;;;;;;11.10;2.70;;;;;;;8.12;71.31;100854.86;103603;1256;96529;-66
2023/05/18 01:59:08;;;;;;;12.40;2.70;;;;;;;8.08;71.49;100856.98;104177;1253;138059;-66
2023/05/18 02:01:36;;;;;;;11.20;2.70;;;;;;;8.05;71.63;100856.48;103844;1252;96328;-66
2023/05/18 02:04:07;;;;;;;10.80;2.70;;;;;;;8.03;71.70;100861.54;103503;1256;139119;-66
2023/05/18 02:06:35;;;;;;;15.30;2.50;;;;;;;8.00;71.80;100866.61;103736;1255;107665;-66
2023/05/18 02:09:04;;;;;;;10.60;2.40;;;;;;;7.96;71.87;100868.91;103557;1253;97051;-66
2023/05/18 02:11:32;;;;;;;9.20;3.00;;;;;;;7.93;71.98;100871.90;102969;1254;1002391;-67
2023/05/18 02:14:01;;;;;;;10.90;2.80;;;;;;;7.90;72.11;100875.89;103480;1257;96440;-66
2023/05/18 02:16:29;;;;;;;15.80;2.90;;;;;;;7.86;71.89;100874.89;103355;1257;138162;-66
2023/05/18 02:19:05;;;;;;;11.70;2.70;;;;;;;7.83;72.28;100875.62;103483;1257;109531;-66
2023/05/18 02:21:44;;;;;;;8.30;2.20;;;;;;;7.79;72.41;100876.88;103686;1254;96558;-66
2023/05/18 02:24:13;;;;;;;8.50;2.50;;;;;;;7.76;72.47;100875.19;103893;1258;137893;-66
2023/05/18 02:26:40;;;;;;;15.50;3.00;;;;;;;7.73;72.66;100878.52;103910;1252;96357;-67
2023/05/18 02:29:13;;;;;;;14.70;2.80;;;;;;;7.70;72.65;100880.95;104523;1254;138444;-67
2023/05/18 02:31:43;;;;;;;10.50;2.20;;;;;;;7.66;72.95;100881.16;103797;1257;107749;-66
2023/05/18 02:34:11;;;;;;;12.50;2.80;;;;;;;7.63;73.10;100880.86;103550;1256;138115;-66
2023/05/18 02:36:41;;;;;;;14.90;3.30;;;;;;;7.59;72.98;100883.67;103559;1254;108155;-66
2023/05/18 02:39:12;;;;;;;14.90;2.90;;;;;;;7.54;73.16;100888.73;103454;1254;96440;-66
2023/05/18 02:41:47;;;;;;;12.90;2.90;;;;;;;7.50;73.36;100886.34;103406;1252;137783;-66
2023/05/18 02:44:20;;;;;;;12.90;2.90;;;;;;;7.46;73.50;100889.84;104142;1252;108254;-66
2023/05/18 02:46:47;;;;;;;16.20;3.00;;;;;;;7.43;73.75;100891.61;103729;1252;138396;-67
2023/05/18 02:49:28;;;;;;;13.30;2.60;;;;;;;7.39;73.74;100888.36;103747;1252;107595;-66
2023/05/18 02:51:59;;;;;;;9.70;2.70;;;;;;;7.36;73.78;100890.63;103632;1254;138367;-66
2023/05/18 02:54:26;;;;;;;14.70;2.80;;;;;;;7.33;73.99;100892.55;103499;1254;110569;-66
2023/05/18 02:56:57;;;;;;;13.60;2.90;;;;;;;7.31;74.11;100890.67;103541;1256;107783;-66
2023/05/18 02:59:35;;;;;;;10.30;2.80;;;;;;;7.30;74.15;100892.92;103878;1253;138107;-67
2023/05/18 03:02:02;;;;;;;11.10;3.10;;;;;;;7.28;74.32;100891.73;103745;1257;106898;-66
2023/05/18 03:04:31;;;;;;;11.60;3.30;;;;;;;7.28;74.39;100895.54;103541;1254;139549;-66
2023/05/18 03:07:01;;;;;;;9.60;2.70;;;;;;;7.27;74.51;100902.29;103746;1257;109873;-66
2023/05/18 03:09:32;;;;;;;10.90;3.40;;;;;;;7.25;74.61;100904.38;103830;1256;107611;-66
2023/05/18 03:12:00;;;;;;;11.10;2.80;;;;;;;7.24;74.53;100909.58;103283;1257;137987;-66
2023/05/18 03:14:28;;;;;;;13.20;3.20;;;;;;;7.22;74.49;100913.92;104069;1254;107610;-66
2023/05/18 03:16:56;;;;;;;8.00;2.50;;;;;;;7.21;74.73;100915.83;103659;1257;138063;-66
2023/05/18 03:19:44;;;;;;;9.10;2.50;;;;;;;7.21;74.75;100915.84;99855;1256;5409501;-66
2023/05/18 03:22:12;;;;;;;8.70;2.70;;;;;;;7.22;74.93;100919.45;103892;1254;138489;-66
2023/05/18 03:24:42;;;;;;;10.60;2.70;;;;;;;7.22;74.84;100922.05;103493;1257;96454;-66
2023/05/18 03:27:29;;;;;;;12.60;3.60;;;;;;;7.23;75.05;100924.29;104002;1258;108819;-66
2023/05/18 03:29:57;;;;;;;12.50;2.50;;;;;;;7.25;75.04;100924.80;103346;1256;138202;-66
2023/05/18 03:32:27;;;;;;;13.60;3.70;;;;;;;7.25;75.00;100924.45;104392;1252;110303;-66
2023/05/18 03:35:02;;;;;;;8.30;2.60;;;;;;;7.27;74.98;100924.27;104032;1253;138455;-67
2023/05/18 03:37:29;;;;;;;12.50;2.90;;;;;;;7.29;75.09;100931.16;103568;1254;96433;-66
2023/05/18 03:40:13;;;;;;;6.70;2.60;;;;;;;7.30;75.01;100930.29;103361;1256;138365;-66
2023/05/18 03:42:55;;;;;;;12.40;2.80;;;;;;;7.31;74.99;100933.21;103898;1254;96445;-67
2023/05/18 03:45:23;;;;;;;13.10;3.20;;;;;;;7.32;74.91;100937.36;103734;1256;109452;-66
2023/05/18 03:47:53;;;;;;;13.30;3.30;;;;;;;7.34;74.92;100940.98;103258;1254;138045;-66
2023/05/18 03:50:25;;;;;;;11.50;3.10;;;;;;;7.36;74.92;100941.64;103424;1256;96343;-66
2023/05/18 03:52:55;;;;;;;10.60;2.90;;;;;;;7.37;74.88;100942.35;104030;1254;138000;-66
2023/05/18 03:55:32;;;;;;;10.80;3.10;;;;;;;7.40;74.92;100945.10;103431;1255;95495;-66
2023/05/18 03:58:20;;;;;;;10.20;2.80;;;;;;;7.42;74.80;100949.41;103329;1252;138013;-66
2023/05/18 04:00:48;;;;;;;10.40;2.60;;;;;;;7.45;74.65;100949.38;103650;1252;108161;-66
2023/05/18 04:03:15;;;;;;;16.10;2.80;;;;;;;7.48;74.72;100950.38;103734;1253;96526;-66
2023/05/18 04:05:46;;;;;;;10.60;2.90;;;;;;;7.49;74.76;100946.73;104703;1253;137823;-66
2023/05/18 04:08:16;;;;;;;11.50;2.90;;;;;;;7.51;74.55;100946.37;103654;1252;96444;-66
2023/05/18 04:10:44;;;;;;;12.30;2.90;;;;;;;7.52;74.58;100951.73;103503;1254;137993;-66
2023/05/18 04:13:19;;;;;;;16.50;3.00;;;;;;;7.55;74.68;100952.92;103981;1254;106606;-66
2023/05/18 04:15:49;;;;;;;18.00;3.10;;;;;;;7.58;74.55;100958.95;103717;1255;98030;-66
2023/05/18 04:18:20;;;;;;;12.90;3.00;;;;;;;7.62;74.47;100960.83;103564;1254;106032;-66
2023/05/18 04:21:01;;;;;;;15.20;2.80;;;;;;;7.66;74.53;100958.70;103510;1257;96330;-66
2023/05/18 04:23:30;;;;;;;13.40;2.80;;;;;;;7.71;74.61;100963.69;103437;1254;137850;-66
2023/05/18 04:25:57;;;;;;;14.10;3.60;;;;;;;7.76;74.40;100963.65;104358;1254;107073;-67
2023/05/18 04:28:24;;;;;;;17.90;5.60;;;;;;;7.83;74.37;100964.61;103935;1254;138178;-67
2023/05/18 04:30:54;;;;;;;14.70;3.20;;;;;;;7.89;74.13;100969.23;104857;1254;108101;-67
2023/05/18 04:33:22;;;;;;;8.30;3.00;;;;;;;7.93;73.80;100971.45;103815;1254;97798;-66
2023/05/18 04:35:53;;;;;;;12.70;3.30;;;;;;;7.95;73.66;100974.55;103486;1254;137796;-66
2023/05/18 04:38:23;;;;;;;15.10;3.10;;;;;;;8.00;73.67;100976.92;103987;1255;108330;-66
2023/05/18 04:40:55;;;;;;;10.80;3.60;;;;;;;8.06;73.61;100980.66;103555;1258;137990;-67
2023/05/18 04:43:23;;;;;;;11.20;3.70;;;;;;;8.14;73.53;100981.11;103759;1254;108587;-66
2023/05/18 04:45:53;;;;;;;11.70;3.20;;;;;;;8.23;73.35;100979.96;103686;1256;96449;-67
2023/05/18 04:48:35;;;;;;;17.20;3.10;;;;;;;8.31;73.13;100983.01;104826;1252;111349;-67
2023/05/18 04:51:03;;;;;;;8.20;2.90;;;;;;;8.37;73.05;100981.74;104282;1254;107202;-67
2023/05/18 04:53:32;;;;;;;14.70;3.10;;;;;;;8.46;72.89;100980.77;104618;1254;138160;-67
2023/05/18 04:56:00;;;;;;;11.40;4.30;;;;;;;8.56;72.89;100983.95;104716;1253;108732;-67
2023/05/18 04:58:29;;;;;;;9.60;2.90;;;;;;;8.65;72.74;100986.27;103682;1256;138096;-67
2023/05/18 05:00:57;;;;;;;11.60;3.00;;;;;;;8.76;72.47;100984.91;104762;1254;110488;-67
2023/05/18 05:03:24;;;;;;;11.00;3.20;;;;;;;8.83;72.14;100984.49;104406;1254;107113;-67
2023/05/18 05:06:03;;;;;;;11.80;3.20;;;;;;;8.91;72.04;100984.53;103368;1254;138751;-67
2023/05/18 05:08:35;;;;;;;11.40;3.00;;;;;;;9.02;72.01;100987.17;103757;1254;107648;-66
2023/05/18 05:11:16;;;;;;;11.90;3.20;;;;;;;9.11;71.53;100984.60;103794;1253;140447;-67
2023/05/18 05:13:45;;;;;;;9.10;2.80;;;;;;;9.19;71.24;100987.64;103520;1252;109748;-67
2023/05/18 05:16:12;;;;;;;16.00;3.60;;;;;;;9.26;71.12;100987.35;103744;1254;138348;-66
2023/05/18 05:18:40;;;;;;;8.30;3.00;;;;;;;9.34;71.24;100987.04;103356;1254;96415;-66
2023/05/18 05:21:08;;;;;;;11.00;2.90;;;;;;;9.47;71.31;100992.55;103547;1257;107697;-67
2023/05/18 05:23:36;;;;;;;11.00;3.10;;;;;;;9.56;70.52;100997.13;103237;1257;138140;-66
2023/05/18 05:26:04;;;;;;;13.60;2.90;;;;;;;9.60;70.66;100999.48;104226;1253;109144;-67
2023/05/18 05:28:42;;;;;;;8.00;3.00;;;;;;;9.70;70.65;100998.80;103254;1254;138131;-66
2023/05/18 05:31:09;;;;;;;9.30;2.80;;;;;;;9.81;70.41;100998.95;103627;1257;96434;-65
2023/05/18 05:33:46;;;;;;;11.40;2.80;;;;;;;9.87;70.22;100997.30;103390;1256;108317;-65
2023/05/18 05:36:15;;;;;;;10.70;2.60;;;;;;;9.88;69.40;101003.19;104663;1254;138042;-66
2023/05/18 05:38:43;;;;;;;13.50;2.90;;;;;;;9.93;69.39;101005.52;103582;1254;109704;-65
2023/05/18 05:41:15;;;;;;;8.20;2.90;;;;;;;10.02;69.47;101011.27;103230;1253;138092;-65
2023/05/18 05:43:42;;;;;;;9.40;2.80;;;;;;;10.13;69.26;101008.14;103379;1254;96303;-66
2023/05/18 05:46:10;;;;;;;15.10;2.70;;;;;;;10.20;69.11;101010.95;104331;1254;138116;-66
2023/05/18 05:48:38;;;;;;;9.10;2.70;;;;;;;10.25;68.76;101010.72;104007;1254;96432;-66
2023/05/18 05:51:06;;;;;;;10.10;2.30;;;;;;;10.32;68.71;101014.77;103290;1257;109911;-66
2023/05/18 05:53:37;;;;;;;10.40;3.30;;;;;;;10.43;68.71;101011.60;103264;1252;138338;-66
2023/05/18 05:56:07;;;;;;;8.60;2.80;;;;;;;10.56;68.37;101009.75;103453;1254;96857;-66
2023/05/18 05:58:37;;;;;;;7.20;2.50;;;;;;;10.68;68.04;101009.19;103602;1253;138345;-66
2023/05/18 06:01:05;;;;;;;13.30;2.70;;;;;;;10.80;67.94;101011.20;103344;1254;96566;-66
2023/05/18 06:03:32;;;;;;;13.00;2.70;;;;;;;10.95;67.81;101011.92;103323;1257;111203;-66
2023/05/18 06:06:04;;;;;;;6.40;2.30;;;;;;;11.14;67.33;101014.80;103281;1255;209423;-66
2023/05/18 06:08:32;;;;;;;8.40;2.30;;;;;;;11.27;66.82;101014.34;103327;1257;97205;-66
2023/05/18 06:11:00;;;;;;;13.80;2.90;;;;;;;11.52;66.60;101012.52;103281;1254;138048;-66
2023/05/18 06:13:30;;;;;;;7.30;2.30;;;;;;;11.77;65.49;101014.92;103343;1254;96338;-66
2023/05/18 06:15:58;;;;;;;7.30;2.30;;;;;;;12.09;65.50;101017.42;103424;1254;110560;-66
2023/05/18 06:18:47;;;;;;;5.50;1.70;;;;;;;12.50;64.65;101014.20;103371;1257;110053;-66
2023/05/18 06:21:15;;;;;;;5.80;1.70;;;;;;;12.78;63.62;101014.82;104475;1254;94542;-66
2023/05/18 06:23:43;;;;;;;8.60;1.80;;;;;;;13.00;62.84;101015.91;103376;1254;137352;-66
2023/05/18 06:26:34;;;;;;;6.20;1.50;;;;;;;13.14;62.26;101012.52;103365;1252;96468;-66
2023/05/18 06:29:13;;;;;;;7.10;1.90;;;;;;;13.22;61.40;101011.25;103250;1254;137923;-66
2023/05/18 06:31:54;;;;;;;9.30;1.50;;;;;;;13.22;60.92;101014.05;103429;1254;108486;-66
2023/05/18 06:34:33;;;;;;;10.00;1.80;;;;;;;13.18;60.49;101019.40;103631;1254;137670;-66
2023/05/18 06:37:00;;;;;;;7.20;1.70;;;;;;;13.19;60.17;101016.92;104781;1254;108561;-66
2023/05/18 06:39:27;;;;;;;7.30;2.00;;;;;;;13.31;60.41;101018.66;104674;1254;94345;-66
2023/05/18 06:41:55;;;;;;;4.50;1.20;;;;;;;13.47;60.31;101020.77;103430;1254;137430;-66
2023/05/18 06:44:25;;;;;;;4.60;1.60;;;;;;;13.73;60.31;101025.35;103586;1256;108880;-66
2023/05/18 06:47:03;;;;;;;4.00;1.70;;;;;;;14.04;59.53;101022.58;103275;1254;137527;-66
2023/05/18 06:49:31;;;;;;;5.10;1.80;;;;;;;14.23;58.79;101024.02;103344;1257;108255;-66
2023/05/18 06:51:58;;;;;;;7.00;1.70;;;;;;;14.38;58.80;101025.04;103375;1254;96478;-65
2023/05/18 06:54:28;;;;;;;4.90;1.30;;;;;;;14.62;58.59;101024.23;104824;1254;109962;-67
2023/05/18 06:56:56;;;;;;;4.50;1.70;;;;;;;14.86;57.46;101021.57;103450;1254;107010;-66
2023/05/18 06:59:23;;;;;;;6.80;1.70;;;;;;;15.07;57.27;101027.43;103501;1254;137553;-66
2023/05/18 07:01:50;;;;;;;4.60;1.50;;;;;;;15.30;56.53;101022.70;103281;1257;108200;-66
2023/05/18 07:04:18;;;;;;;10.40;1.90;;;;;;;15.47;55.94;101024.64;103438;1254;137682;-66
2023/05/18 07:06:48;;;;;;;2.90;1.60;;;;;;;15.63;55.60;101025.60;103432;1253;109782;-66
2023/05/18 07:09:16;;;;;;;6.60;2.40;;;;;;;15.68;55.03;101028.55;103367;1257;107388;-66
2023/05/18 07:11:44;;;;;;;3.90;1.40;;;;;;;15.70;54.69;101029.50;103234;1253;137826;-66
2023/05/18 07:14:11;;;;;;;7.50;1.50;;;;;;;15.67;54.53;101033.30;103385;1252;108016;-66
2023/05/18 07:16:39;;;;;;;4.40;1.10;;;;;;;15.58;53.57;101038.21;103239;1257;137680;-66
2023/05/18 07:19:07;;;;;;;6.80;1.70;;;;;;;15.44;53.52;101035.80;103426;1257;109509;-66
2023/05/18 07:21:34;;;;;;;4.90;1.30;;;;;;;15.39;53.60;101040.73;103763;1253;106793;-66
2023/05/18 07:24:01;;;;;;;8.60;1.20;;;;;;;15.38;53.26;101039.54;103331;1256;137479;-68
2023/05/18 07:26:29;;;;;;;6.90;1.60;;;;;;;15.38;53.49;101040.06;103449;1253;108422;-66
2023/05/18 07:29:00;;;;;;;6.00;1.30;;;;;;;15.47;53.97;101040.73;103364;1257;138042;-66
2023/05/18 07:31:28;;;;;;;5.00;1.30;;;;;;;15.60;53.34;101044.80;103465;1256;110401;-66
2023/05/18 07:33:55;;;;;;;3.50;0.90;;;;;;;15.62;52.27;101046.84;103375;1254;107431;-66
2023/05/18 07:36:22;;;;;;;2.70;1.20;;;;;;;15.60;52.17;101049.18;103316;1254;137284;-65
2023/05/18 07:38:53;;;;;;;2.20;0.80;;;;;;;15.60;51.94;101049.89;103370;1252;107918;-66
2023/05/18 07:41:21;;;;;;;4.40;1.20;;;;;;;15.77;52.50;101051.69;104146;1252;137414;-66
2023/05/18 07:43:48;;;;;;;5.20;1.10;;;;;;;16.05;51.82;101051.20;104548;1252;109833;-67
2023/05/18 07:46:16;;;;;;;3.20;1.20;;;;;;;16.32;51.85;101056.19;103302;1257;137671;-67
2023/05/18 07:48:44;;;;;;;6.90;1.40;;;;;;;16.70;51.71;101054.16;103444;1253;96329;-67
2023/05/18 07:51:11;;;;;;;4.00;1.30;;;;;;;17.09;51.01;101050.88;103381;1256;108426;-67
2023/05/18 07:53:39;;;;;;;4.10;1.10;;;;;;;17.40;50.41;101050.63;103603;1252;137424;-67
2023/05/18 07:56:08;;;;;;;4.90;1.10;;;;;;;17.80;49.83;101054.31;103485;1254;112060;-67
2023/05/18 07:58:35;;;;;;;4.00;1.20;;;;;;;18.23;49.58;101052.51;104221;1252;137709;-66
2023/05/18 08:01:03;;;;;;;3.90;1.10;;;;;;;18.66;49.07;101051.70;103501;1254;96948;-67
2023/05/18 08:03:30;;;;;;;4.00;1.30;;;;;;;18.98;47.67;101052.45;103481;1254;107794;-67
2023/05/18 08:05:59;;;;;;;3.90;0.80;;;;;;;19.17;47.31;101053.89;103275;1254;137444;-67
2023/05/18 08:08:26;;;;;;;2.70;1.00;;;;;;;19.49;47.02;101053.71;103499;1256;110775;-67
2023/05/18 08:10:54;;;;;;;3.10;1.10;;;;;;;19.94;46.36;101058.20;103302;1252;137419;-67
2023/05/18 08:13:21;;;;;;;3.20;1.00;;;;;;;20.32;46.25;101052.58;103463;1257;96320;-67
2023/05/18 08:15:48;;;;;;;6.50;1.00;;;;;;;20.70;44.98;101055.58;103476;1257;108412;-67
2023/05/18 08:18:35;;;;;;;3.70;1.30;;;;;;;20.86;44.05;101055.46;103498;1252;96534;-67
2023/05/18 08:21:06;;;;;;;4.00;1.00;;;;;;;21.19;43.62;101054.81;103870;1252;109202;-67
2023/05/18 08:23:34;;;;;;;2.90;0.90;;;;;;;21.46;43.47;101051.17;103991;1256;137410;-67
2023/05/18 08:26:02;;;;;;;2.60;1.00;;;;;;;21.70;43.35;101049.91;103467;1253;96454;-67
2023/05/18 08:28:29;;;;;;;5.60;1.00;;;;;;;21.88;42.63;101048.58;103702;1252;137614;-66
2023/05/18 08:30:56;;;;;;;2.80;1.20;;;;;;;21.81;42.05;101053.98;103374;1253;96531;-67
2023/05/18 08:33:24;;;;;;;3.80;0.90;;;;;;;21.83;41.89;101053.52;103432;1257;110239;-67
2023/05/18 08:35:52;;;;;;;4.10;1.10;;;;;;;21.68;41.25;101055.35;103285;1253;137700;-67
2023/05/18 08:38:19;;;;;;;4.00;0.80;;;;;;;21.47;41.47;101054.50;103504;1252;96479;-67
2023/05/18 08:40:52;;;;;;;5.70;0.90;;;;;;;21.36;41.50;101055.48;103251;1253;137670;-67
2023/05/18 08:43:31;;;;;;;7.50;1.10;;;;;;;21.24;41.29;101062.09;103440;1253;96447;-67
2023/05/18 08:46:04;;;;;;;3.10;0.80;;;;;;;21.19;41.58;101061.73;103413;1252;109536;-67
2023/05/18 08:48:33;;;;;;;6.20;1.20;;;;;;;21.05;41.42;101060.44;104395;1252;107259;-67
2023/05/18 08:51:03;;;;;;;2.10;1.00;;;;;;;20.89;41.27;101057.78;104150;1252;96429;-67
2023/05/18 08:53:32;;;;;;;2.70;1.00;;;;;;;20.69;41.03;101061.67;104333;1251;139222;-67
2023/05/18 08:56:00;;;;;;;3.80;1.20;;;;;;;20.42;41.28;101062.77;104618;1252;94680;-67
2023/05/18 08:58:35;;;;;;;2.80;1.20;;;;;;;20.22;41.48;101059.20;103360;1252;138387;-67
2023/05/18 09:01:03;;;;;;;5.70;1.20;;;;;;;20.11;41.61;101061.27;103467;1253;107942;-67
2023/05/18 09:03:31;;;;;;;5.10;1.30;;;;;;;19.95;41.61;101060.21;103455;1252;96442;-67
2023/05/18 09:06:01;;;;;;;5.40;1.20;;;;;;;19.64;41.62;101059.23;104724;1252;137127;-67
2023/05/18 09:08:30;;;;;;;4.40;1.30;;;;;;;19.50;42.23;101061.94;104802;1251;94837;-67
2023/05/18 09:10:59;;;;;;;4.50;1.10;;;;;;;19.41;42.34;101061.54;104649;1252;137381;-68
2023/05/18 09:13:27;;;;;;;3.90;1.40;;;;;;;19.26;42.57;101062.91;104788;1252;107571;-67
2023/05/18 09:15:54;;;;;;;2.30;1.20;;;;;;;19.15;43.00;101067.73;103582;1252;96339;-67
2023/05/18 09:18:22;;;;;;;3.80;1.00;;;;;;;19.04;42.98;101067.28;103575;1252;137035;-67
2023/05/18 09:20:52;;;;;;;3.50;0.80;;;;;;;18.85;42.72;101064.81;104136;1254;96428;-67
2023/05/18 09:23:19;;;;;;;3.60;1.00;;;;;;;18.63;42.97;101072.30;103348;1257;137616;-67
2023/05/18 09:25:48;;;;;;;2.50;1.20;;;;;;;18.55;43.34;101074.10;103342;1252;108466;-67
2023/05/18 09:28:25;;;;;;;3.90;1.10;;;;;;;18.56;43.46;101071.92;103357;1252;137596;-67
2023/05/18 09:30:52;;;;;;;;;;;;;;;18.58;43.43;101073.04;103396;1252;108176;-67
2023/05/18 09:33:20;;;;;;;5.40;1.00;;;;;;;18.49;43.82;101070.04;103419;1252;96451;-67
2023/05/18 09:35:49;;;;;;;4.40;1.20;;;;;;;18.32;43.75;101066.65;103827;1252;137889;-67
2023/05/18 09:38:22;;;;;;;2.50;1.10;;;;;;;18.20;44.10;101069.25;103429;1253;108265;-67
2023/05/18 09:40:50;;;;;;;6.10;1.00;;;;;;;18.17;44.26;101068.00;104727;1252;137931;-67
2023/05/18 09:43:18;;;;;;;4.00;1.20;;;;;;;18.14;44.04;101067.08;103977;1252;107934;-67
2023/05/18 09:45:48;;;;;;;6.60;1.30;;;;;;;18.12;44.66;101069.60;104257;1253;96777;-67
2023/05/18 09:48:17;;;;;;;8.50;1.40;;;;;;;18.13;44.77;101070.64;104691;1252;137794;-67
2023/05/18 09:50:45;;;;;;;3.40;1.30;;;;;;;18.06;45.02;101071.14;103617;1253;107569;-66
2023/05/18 09:53:13;;;;;;;3.60;1.20;;;;;;;17.98;44.76;101075.79;103333;1255;140420;-67
2023/05/18 09:55:47;;;;;;;6.30;1.20;;;;;;;17.93;44.94;101078.84;103444;1252;108516;-67
2023/05/18 09:58:15;;;;;;;4.90;1.20;;;;;;;17.95;45.11;101079.61;103332;1256;138052;-67
2023/05/18 10:00:50;;;;;;;4.40;1.40;;;;;;;17.86;44.99;101083.92;103926;1257;110088;-67
2023/05/18 10:03:23;;;;;;;8.30;1.20;;;;;;;17.81;45.12;101081.75;104095;1252;108214;-67
2023/05/18 10:05:50;;;;;;;3.20;1.00;;;;;;;17.75;44.58;101076.20;103522;1256;137501;-68
2023/05/18 10:08:18;;;;;;;4.80;1.40;;;;;;;17.66;44.97;101075.94;103371;1257;109449;-67
2023/05/18 10:10:46;;;;;;;3.40;0.90;;;;;;;17.62;45.13;101071.19;103334;1256;138272;-67
2023/05/18 10:13:18;;;;;;;4.30;0.90;;;;;;;17.55;44.91;101073.63;104749;1252;110427;-67
2023/05/18 10:15:52;;;;;;;3.70;1.10;;;;;;;17.62;45.52;101070.70;104224;1252;107931;-67
2023/05/18 10:18:23;;;;;;;5.60;1.20;;;;;;;17.83;45.54;101073.19;103283;1256;137401;-67
2023/05/18 10:20:53;;;;;;;8.80;1.30;;;;;;;17.99;45.05;101074.15;104070;1252;107983;-67
2023/05/18 10:23:24;;;;;;;5.20;1.20;;;;;;;17.98;44.76;101075.40;104526;1252;137694;-67
2023/05/18 10:25:52;;;;;;;3.60;1.10;;;;;;;18.10;44.51;101074.48;104016;1252;108772;-67
2023/05/18 10:28:24;;;;;;;3.30;1.20;;;;;;;18.27;44.41;101067.61;104068;1252;137533;-67
2023/05/18 10:30:54;;;;;;;8.20;1.10;;;;;;;18.42;44.27;101068.25;104795;1252;94290;-67
2023/05/18 10:33:23;;;;;;;1.50;0.70;;;;;;;18.57;44.74;101066.77;104125;1257;107354;-67
2023/05/18 10:35:57;;;;;;;1.80;0.80;;;;;;;18.78;44.52;101066.07;103438;1252;137455;-67
2023/05/18 10:38:26;;;;;;;2.70;1.00;;;;;;;18.94;44.10;101057.94;104783;1252;109919;-67
2023/05/18 10:40:55;;;;;;;2.50;1.20;;;;;;;19.09;44.24;101058.73;103547;1252;137654;-67
2023/05/18 10:43:26;;;;;;;1.60;0.70;;;;;;;19.19;43.79;101062.39;103942;1251;94860;-67
2023/05/18 10:45:55;;;;;;;5.00;0.90;;;;;;;19.21;43.40;101061.40;103903;1252;107817;-67
2023/05/18 10:48:24;;;;;;;1.80;0.80;;;;;;;19.31;43.45;101056.64;104693;1252;137379;-66
2023/05/18 10:50:53;;;;;;;1.10;0.70;;;;;;;19.46;43.38;101055.27;104218;1252;109685;-67
2023/05/18 10:53:22;;;;;;;3.40;1.30;;;;;;;19.54;43.34;101056.75;104070;1256;138105;-67
2023/05/18 10:55:51;;;;;;;2.40;0.80;;;;;;;19.59;42.63;101060.92;104602;1252;95129;-67
2023/05/18 10:58:21;;;;;;;4.40;0.70;;;;;;;19.61;42.40;101058.48;104462;1252;139045;-67
2023/05/18 11:00:52;;;;;;;1.90;0.70;;;;;;;19.65;42.53;101056.71;104207;1252;95444;-67
2023/05/18 11:03:24;;;;;;;1.50;0.60;;;;;;;19.74;42.67;101056.69;104348;1252;109949;-67
2023/05/18 11:06:06;;;;;;;2.80;0.70;;;;;;;19.82;42.20;101053.92;104248;1252;137446;-67
2023/05/18 11:08:34;;;;;;;0.80;0.50;;;;;;;19.82;41.86;101052.34;103667;1253;96434;-67
2023/05/18 11:11:07;;;;;;;3.30;0.90;;;;;;;19.71;41.68;101051.71;103820;1252;137802;-67
2023/05/18 11:13:37;;;;;;;5.60;1.40;;;;;;;19.66;41.81;101053.83;104381;1256;94410;-67
2023/05/18 11:16:09;;;;;;;7.50;2.20;;;;;;;19.66;41.99;101056.45;103923;1252;109962;-67
2023/05/18 11:18:41;;;;;;;2.40;0.90;;;;;;;19.55;41.53;101056.86;104139;1254;107631;-67
2023/05/18 11:21:28;;;;;;;1.20;0.50;;;;;;;19.50;42.02;101052.23;104799;1252;94616;-67
2023/05/18 11:24:17;;;;;;;2.20;0.50;;;;;;;19.59;42.10;101052.59;103764;1256;137534;-67
2023/05/18 11:26:46;;;;;;;3.20;1.00;;;;;;;19.71;42.48;101049.09;103418;1252;96551;-67
2023/05/18 11:29:30;;;;;;;9.20;1.00;;;;;;;19.80;42.27;101048.74;104016;1252;137290;-67